createdAt,value
2018-09-26T00:00:45.950Z,37.21
2018-09-26T00:03:11.884Z,38.11
2018-09-26T00:05:37.832Z,37.63
2018-09-26T00:08:03.800Z,37.89
2018-09-26T00:10:29.769Z,38.13
2018-09-26T00:12:55.715Z,38.12
2018-09-26T00:15:21.692Z,37.53
2018-09-26T00:17:47.633Z,37.73
2018-09-26T00:20:13.602Z,37.87
2018-09-26T00:22:39.573Z,37.55
2018-09-26T00:25:05.560Z,37.97
2018-09-26T00:27:31.514Z,37.96
2018-09-26T00:29:57.463Z,38.30
2018-09-26T00:32:23.420Z,38.66
2018-09-26T00:34:49.372Z,38.32
2018-09-26T00:37:16.234Z,39.12
2018-09-26T00:39:42.180Z,38.63
2018-09-26T00:42:08.170Z,38.31
2018-09-26T00:44:34.128Z,38.63
2018-09-26T00:47:00.108Z,38.13
2018-09-26T00:49:26.071Z,38.37
2018-09-26T00:51:52.041Z,38.22
2018-09-26T00:54:18.013Z,38.19
2018-09-26T00:56:43.974Z,38.38
2018-09-26T00:59:09.926Z,39.09
2018-09-26T01:01:35.907Z,38.44
2018-09-26T01:04:01.872Z,38.35
2018-09-26T01:06:27.855Z,38.52
2018-09-26T01:08:53.886Z,38.76
2018-09-26T01:11:19.864Z,39.16
2018-09-26T01:13:45.820Z,39.09
2018-09-26T01:16:11.810Z,39.39
2018-09-26T01:18:37.773Z,39.43
2018-09-26T01:21:03.733Z,39.08
2018-09-26T01:23:29.691Z,38.94
2018-09-26T01:25:55.653Z,39.31
2018-09-26T01:28:21.618Z,39.34
2018-09-26T01:30:47.577Z,39.33
2018-09-26T01:33:13.527Z,38.96
2018-09-26T01:35:39.461Z,39.35
2018-09-26T01:38:05.400Z,39.02
2018-09-26T01:40:31.378Z,39.72
2018-09-26T01:42:57.356Z,39.73
2018-09-26T01:45:23.324Z,39.13
2018-09-26T01:47:49.271Z,39.82
2018-09-26T01:50:15.201Z,39.03
2018-09-26T01:52:41.161Z,39.04
2018-09-26T01:55:07.141Z,39.13
2018-09-26T01:57:33.100Z,39.32
2018-09-26T01:59:59.058Z,39.55
2018-09-26T02:02:25.028Z,39.89
2018-09-26T02:04:50.992Z,39.89
2018-09-26T02:07:16.981Z,39.35
2018-09-26T02:09:42.957Z,39.49
2018-09-26T02:12:08.892Z,39.67
2018-09-26T02:14:34.864Z,39.54
2018-09-26T02:17:00.836Z,39.80
2018-09-26T02:19:26.766Z,39.47
2018-09-26T02:21:52.737Z,39.59
2018-09-26T02:24:18.698Z,39.50
2018-09-26T02:26:44.667Z,38.81
2018-09-26T02:29:10.630Z,38.83
2018-09-26T02:31:36.588Z,39.41
2018-09-26T02:34:02.527Z,39.33
2018-09-26T02:36:28.462Z,39.12
2018-09-26T02:38:54.430Z,39.56
2018-09-26T02:41:20.378Z,39.46
2018-09-26T02:43:46.319Z,39.07
2018-09-26T02:46:12.265Z,39.17
2018-09-26T02:48:38.218Z,40.08
2018-09-26T02:51:04.187Z,40.22
2018-09-26T02:53:30.149Z,39.52
2018-09-26T02:55:56.111Z,39.04
2018-09-26T02:58:22.106Z,39.64
2018-09-26T03:00:48.058Z,39.43
2018-09-26T03:03:14.007Z,39.65
2018-09-26T03:05:39.985Z,39.51
2018-09-26T03:08:06.017Z,39.95
2018-09-26T03:10:31.997Z,40.00
2018-09-26T03:12:58.057Z,40.01
2018-09-26T03:15:23.989Z,39.57
2018-09-26T03:17:49.932Z,39.54
2018-09-26T03:20:15.883Z,39.81
2018-09-26T03:22:41.821Z,40.21
2018-09-26T03:25:07.799Z,40.27
2018-09-26T03:27:33.749Z,40.33
2018-09-26T03:29:59.712Z,39.83
2018-09-26T03:32:25.636Z,40.10
2018-09-26T03:34:51.591Z,39.70
2018-09-26T03:37:17.550Z,39.80
2018-09-26T03:39:43.612Z,40.38
2018-09-26T03:42:09.574Z,40.44
2018-09-26T03:44:35.528Z,40.24
2018-09-26T03:47:01.476Z,40.04
2018-09-26T03:49:27.455Z,39.58
2018-09-26T03:51:53.393Z,40.11
2018-09-26T03:54:19.380Z,39.83
2018-09-26T03:56:45.390Z,39.54
2018-09-26T03:59:11.336Z,40.00
2018-09-26T04:01:37.276Z,39.43
2018-09-26T04:04:03.245Z,39.83
2018-09-26T04:06:29.203Z,39.55
2018-09-26T04:08:55.166Z,40.26
2018-09-26T04:11:21.094Z,40.11
2018-09-26T04:13:47.136Z,40.15
2018-09-26T04:16:13.203Z,40.00
2018-09-26T04:18:39.181Z,40.15
2018-09-26T04:21:05.158Z,40.20
2018-09-26T04:23:31.114Z,39.99
2018-09-26T04:25:57.072Z,39.87
2018-09-26T04:28:23.060Z,40.41
2018-09-26T04:30:49.085Z,40.55
2018-09-26T04:33:15.346Z,40.82
2018-09-26T04:35:40.989Z,40.91
2018-09-26T04:38:06.933Z,41.36
2018-09-26T04:40:32.894Z,41.40
2018-09-26T04:42:58.853Z,40.31
2018-09-26T04:45:24.828Z,40.96
2018-09-26T04:47:50.778Z,40.48
2018-09-26T04:50:16.743Z,40.60
2018-09-26T04:52:42.703Z,41.25
2018-09-26T04:55:08.677Z,41.60
2018-09-26T04:57:34.642Z,40.97
2018-09-26T05:00:00.652Z,40.99
2018-09-26T05:02:26.624Z,40.92
2018-09-26T05:04:52.708Z,40.68
2018-09-26T05:07:18.661Z,40.75
2018-09-26T05:09:44.695Z,41.14
2018-09-26T05:12:10.660Z,41.02
2018-09-26T05:14:36.913Z,40.69
2018-09-26T05:17:02.892Z,41.20
2018-09-26T05:19:28.833Z,41.54
2018-09-26T05:21:54.822Z,41.27
2018-09-26T05:24:20.765Z,42.01
2018-09-26T05:26:46.697Z,41.11
2018-09-26T05:29:12.658Z,41.08
2018-09-26T05:31:38.601Z,41.27
2018-09-26T05:34:04.551Z,40.99
2018-09-26T05:36:30.521Z,41.12
2018-09-26T05:38:56.462Z,41.25
2018-09-26T05:41:22.415Z,41.66
2018-09-26T05:43:48.370Z,41.85
2018-09-26T05:46:14.310Z,41.24
2018-09-26T05:48:40.240Z,40.76
2018-09-26T05:51:06.190Z,39.82
2018-09-26T05:53:32.186Z,40.11
2018-09-26T05:55:58.139Z,39.66
2018-09-26T05:58:24.100Z,38.93
2018-09-26T06:00:50.070Z,38.55
2018-09-26T06:03:16.000Z,38.83
2018-09-26T06:05:41.973Z,38.58
2018-09-26T06:08:07.950Z,38.63
2018-09-26T06:10:33.899Z,38.47
2018-09-26T06:12:59.883Z,38.19
2018-09-26T06:15:25.799Z,37.43
2018-09-26T06:17:51.752Z,37.55
2018-09-26T06:20:18.385Z,37.43
2018-09-26T06:22:44.415Z,37.63
2018-09-26T06:25:10.372Z,37.94
2018-09-26T06:27:36.316Z,37.70
2018-09-26T06:30:02.284Z,37.14
2018-09-26T06:32:28.844Z,37.38
2018-09-26T06:34:54.945Z,37.66
2018-09-26T06:37:20.868Z,37.89
2018-09-26T06:39:46.838Z,36.63
2018-09-26T06:42:12.783Z,36.05
2018-09-26T06:44:38.764Z,36.06
2018-09-26T06:47:04.744Z,35.27
2018-09-26T06:49:30.688Z,35.37
2018-09-26T06:51:56.651Z,35.40
2018-09-26T06:54:22.601Z,34.33
2018-09-26T06:56:48.588Z,34.87
2018-09-26T06:59:14.556Z,34.53
2018-09-26T07:01:40.514Z,34.66
2018-09-26T07:04:06.473Z,34.44
2018-09-26T07:06:32.436Z,33.69
2018-09-26T07:08:58.390Z,33.05
2018-09-26T07:11:24.361Z,33.68
2018-09-26T07:13:50.305Z,33.61
2018-09-26T07:16:16.234Z,34.79
2018-09-26T07:18:42.173Z,33.77
2018-09-26T07:21:08.128Z,34.22
2018-09-26T07:23:34.100Z,33.58
2018-09-26T07:26:00.053Z,34.27
2018-09-26T07:28:26.015Z,34.24
2018-09-26T07:30:51.983Z,34.14
2018-09-26T07:33:17.940Z,33.68
2018-09-26T07:35:43.963Z,33.94
2018-09-26T07:38:09.950Z,33.38
2018-09-26T07:40:35.910Z,32.83
2018-09-26T07:43:01.888Z,32.78
2018-09-26T07:45:27.935Z,33.01
2018-09-26T07:47:53.871Z,33.00
2018-09-26T07:50:19.822Z,32.28
2018-09-26T07:52:45.769Z,32.21
2018-09-26T07:55:11.724Z,32.46
2018-09-26T07:57:37.691Z,31.98
2018-09-26T08:00:03.751Z,31.59
2018-09-26T08:02:29.705Z,31.34
2018-09-26T08:04:55.667Z,30.87
2018-09-26T08:07:21.623Z,30.66
2018-09-26T08:09:47.581Z,30.60
2018-09-26T08:12:13.530Z,31.68
2018-09-26T08:14:39.484Z,31.29
2018-09-26T08:17:07.497Z,31.78
2018-09-26T08:19:33.455Z,31.42
2018-09-26T08:21:59.395Z,32.79
2018-09-26T08:24:25.344Z,31.14
2018-09-26T08:26:51.282Z,30.85
2018-09-26T08:29:17.228Z,27.87
2018-09-26T08:31:43.183Z,27.82
2018-09-26T08:34:09.125Z,27.40
2018-09-26T08:36:35.053Z,28.38
2018-09-26T08:39:01.034Z,27.34
2018-09-26T08:41:27.019Z,27.24
2018-09-26T08:43:52.996Z,26.39
2018-09-26T08:46:18.960Z,27.38
2018-09-26T08:48:44.901Z,27.36
2018-09-26T08:51:10.853Z,26.30
2018-09-26T08:53:36.889Z,26.08
2018-09-26T08:56:02.821Z,25.11
2018-09-26T08:58:28.756Z,24.31
2018-09-26T09:00:54.699Z,26.10
2018-09-26T09:03:20.658Z,25.70
2018-09-26T09:05:46.608Z,25.15
2018-09-26T09:08:12.595Z,25.02
2018-09-26T09:10:38.560Z,23.91
2018-09-26T09:13:04.526Z,25.02
2018-09-26T09:15:30.489Z,24.31
2018-09-26T09:17:56.495Z,24.98
2018-09-26T09:20:22.491Z,25.31
2018-09-26T09:22:48.468Z,25.32
2018-09-26T09:25:14.396Z,24.44
2018-09-26T09:27:40.457Z,24.09
2018-09-26T09:30:06.409Z,24.73
2018-09-26T09:32:32.389Z,23.45
2018-09-26T09:34:58.363Z,23.78
2018-09-26T09:37:24.362Z,24.47
2018-09-26T09:39:50.308Z,24.94
2018-09-26T09:42:16.268Z,23.51
2018-09-26T09:44:42.288Z,23.28
2018-09-26T09:47:08.259Z,22.99
2018-09-26T09:49:34.231Z,23.38
2018-09-26T09:52:00.181Z,24.01
2018-09-26T09:54:26.139Z,24.99
2018-09-26T09:56:52.288Z,25.35
2018-09-26T09:59:18.350Z,25.47
2018-09-26T10:01:44.325Z,23.57
2018-09-26T10:04:10.286Z,23.73
2018-09-26T10:06:36.257Z,24.43
2018-09-26T10:09:02.232Z,25.82
2018-09-26T10:11:28.210Z,23.28
2018-09-26T10:13:54.172Z,24.44
2018-09-26T10:16:20.139Z,23.53
2018-09-26T10:18:46.116Z,23.58
2018-09-26T10:21:12.070Z,23.10
2018-09-26T10:23:38.036Z,23.69
2018-09-26T10:26:03.991Z,22.85
2018-09-26T10:28:29.947Z,23.18
2018-09-26T10:30:55.916Z,22.76
2018-09-26T10:33:21.881Z,23.99
2018-09-26T10:35:47.839Z,23.39
2018-09-26T10:38:13.873Z,22.98
2018-09-26T10:43:12.221Z,23.48
2018-09-26T10:45:38.191Z,23.40
2018-09-26T10:48:04.144Z,22.20
2018-09-26T10:50:30.101Z,22.79
2018-09-26T10:52:56.045Z,23.74
2018-09-26T10:55:22.004Z,24.76
2018-09-26T10:57:47.973Z,22.97
2018-09-26T11:00:13.959Z,24.11
2018-09-26T11:02:39.927Z,23.42
2018-09-26T11:05:05.901Z,22.96
2018-09-26T11:07:31.873Z,22.53
2018-09-26T11:09:57.847Z,22.72
2018-09-26T11:12:23.825Z,23.52
2018-09-26T11:14:49.770Z,21.97
2018-09-26T11:17:15.726Z,23.56
2018-09-26T11:19:41.663Z,23.42
2018-09-26T11:22:07.659Z,21.05
2018-09-26T11:24:33.598Z,23.35
2018-09-26T11:26:59.549Z,23.23
2018-09-26T11:29:25.503Z,21.92
2018-09-26T11:31:51.457Z,23.11
2018-09-26T11:34:17.474Z,22.93
2018-09-26T11:36:43.402Z,23.00
2018-09-26T11:39:09.390Z,23.37
2018-09-26T11:41:35.370Z,23.96
2018-09-26T11:44:01.359Z,21.17
2018-09-26T11:46:27.345Z,21.86
2018-09-26T11:48:53.314Z,22.26
2018-09-26T11:51:19.310Z,23.48
2018-09-26T11:53:45.276Z,22.03
2018-09-26T11:56:11.222Z,22.91
2018-09-26T11:58:37.157Z,23.70
2018-09-26T12:01:03.092Z,23.17
2018-09-26T12:03:29.057Z,22.31
2018-09-26T12:05:55.029Z,22.61
2018-09-26T12:08:21.059Z,22.97
2018-09-26T12:10:46.996Z,23.88
2018-09-26T12:13:12.959Z,23.17
2018-09-26T12:15:38.911Z,23.37
2018-09-26T12:18:04.968Z,23.44
2018-09-26T12:20:31.050Z,23.24
2018-09-26T12:22:57.356Z,23.80
2018-09-26T12:25:23.494Z,23.39
2018-09-26T12:27:49.396Z,23.67
2018-09-26T12:30:15.452Z,24.11
2018-09-26T12:32:41.395Z,23.56
2018-09-26T12:35:07.348Z,24.34
2018-09-26T12:37:33.298Z,23.65
2018-09-26T12:39:59.266Z,24.14
2018-09-26T12:42:25.381Z,22.24
2018-09-26T12:44:51.342Z,23.04
2018-09-26T12:47:17.357Z,24.04
2018-09-26T12:49:43.295Z,24.49
2018-09-26T12:52:09.264Z,24.65
2018-09-26T12:54:35.200Z,23.68
2018-09-26T12:57:01.158Z,24.56
2018-09-26T12:59:27.108Z,24.09
2018-09-26T13:01:53.113Z,24.32
2018-09-26T13:04:19.102Z,24.61
2018-09-26T13:06:45.040Z,23.83
2018-09-26T13:09:11.022Z,23.58
2018-09-26T13:11:36.980Z,24.33
2018-09-26T13:14:02.947Z,23.65
2018-09-26T13:16:28.905Z,23.74
2018-09-26T13:18:54.893Z,24.39
2018-09-26T13:21:20.879Z,24.54
2018-09-26T13:23:46.871Z,24.52
2018-09-26T13:26:12.844Z,24.70
2018-09-26T13:28:38.816Z,24.70
2018-09-26T13:31:04.802Z,24.08
2018-09-26T13:33:30.776Z,24.55
2018-09-26T13:35:56.810Z,25.05
2018-09-26T13:38:22.843Z,24.48
2018-09-26T13:40:48.771Z,24.98
2018-09-26T13:43:14.760Z,24.76
2018-09-26T13:45:40.758Z,23.38
2018-09-26T13:48:06.659Z,23.86
2018-09-26T13:50:32.641Z,24.09
2018-09-26T13:52:58.595Z,24.23
2018-09-26T13:55:24.566Z,24.16
2018-09-26T13:57:50.516Z,25.03
2018-09-26T14:00:16.493Z,24.50
2018-09-26T14:02:42.500Z,25.46
2018-09-26T14:05:08.453Z,25.19
2018-09-26T14:07:34.397Z,25.33
2018-09-26T14:10:00.344Z,25.00
2018-09-26T14:12:26.362Z,24.89
2018-09-26T14:14:52.259Z,24.93
2018-09-26T14:17:22.106Z,25.96
2018-09-26T14:19:48.141Z,25.23
2018-09-26T14:22:14.151Z,25.76
2018-09-26T14:24:40.128Z,24.83
2018-09-26T14:27:06.086Z,25.11
2018-09-26T14:29:32.171Z,25.76
2018-09-26T14:31:58.142Z,25.88
2018-09-26T14:34:24.104Z,25.77
2018-09-26T14:36:50.062Z,25.03
2018-09-26T14:39:16.119Z,25.26
2018-09-26T14:41:42.001Z,25.89
2018-09-26T14:44:08.016Z,26.12
2018-09-26T14:46:33.978Z,26.38
2018-09-26T14:49:00.020Z,25.92
2018-09-26T14:51:25.993Z,26.30
2018-09-26T14:53:51.972Z,26.22
2018-09-26T14:56:17.936Z,26.38
2018-09-26T14:58:43.881Z,26.28
2018-09-26T15:01:09.829Z,26.32
2018-09-26T15:03:35.781Z,25.84
2018-09-26T15:06:01.757Z,25.90
2018-09-26T15:08:27.871Z,26.43
2018-09-26T15:10:53.709Z,25.80
2018-09-26T15:13:19.656Z,26.03
2018-09-26T15:15:45.608Z,25.69
2018-09-26T15:18:11.608Z,25.95
2018-09-26T15:20:37.668Z,26.59
2018-09-26T15:23:03.573Z,26.31
2018-09-26T15:25:29.544Z,26.03
2018-09-26T15:27:55.556Z,26.18
2018-09-26T15:30:21.588Z,26.87
2018-09-26T15:32:47.514Z,26.19
2018-09-26T15:35:13.497Z,26.29
2018-09-26T15:37:43.367Z,26.28
2018-09-26T15:40:09.402Z,26.41
2018-09-26T15:42:35.320Z,26.69
2018-09-26T15:45:01.277Z,26.42
2018-09-26T15:47:27.307Z,26.59
2018-09-26T15:49:53.265Z,26.75
2018-09-26T15:52:19.239Z,26.93
2018-09-26T15:54:45.219Z,26.50
2018-09-26T15:57:11.193Z,27.04
2018-09-26T15:59:37.262Z,26.96
2018-09-26T16:02:03.251Z,27.47
2018-09-26T16:04:29.262Z,26.41
2018-09-26T16:06:55.225Z,27.19
2018-09-26T16:09:21.194Z,27.26
2018-09-26T16:11:47.178Z,26.54
2018-09-26T16:14:13.188Z,27.19
2018-09-26T16:16:39.195Z,26.99
2018-09-26T16:19:05.273Z,26.90
2018-09-26T16:21:31.242Z,26.57
2018-09-26T16:23:57.277Z,27.39
2018-09-26T16:26:23.317Z,26.92
2018-09-26T16:28:49.227Z,27.51
2018-09-26T16:31:15.201Z,26.80
2018-09-26T16:33:41.144Z,27.48
2018-09-26T16:36:07.194Z,26.83
2018-09-26T16:38:33.144Z,27.38
2018-09-26T16:40:59.146Z,26.89
2018-09-26T16:43:25.112Z,27.64
2018-09-26T16:45:52.156Z,27.23
2018-09-26T16:48:18.130Z,27.79
2018-09-26T16:50:44.127Z,27.83
2018-09-26T16:53:10.074Z,27.69
2018-09-26T16:55:36.036Z,27.65
2018-09-26T16:58:01.995Z,28.31
2018-09-26T17:00:27.942Z,29.06
2018-09-26T17:02:53.930Z,28.81
2018-09-26T17:05:19.898Z,29.17
2018-09-26T17:07:45.864Z,28.41
2018-09-26T17:10:11.835Z,29.21
2018-09-26T17:12:37.794Z,28.30
2018-09-26T17:15:03.768Z,28.54
2018-09-26T17:17:29.740Z,28.94
2018-09-26T17:19:55.686Z,29.53
2018-09-26T17:22:21.647Z,29.03
2018-09-26T17:24:47.590Z,29.61
2018-09-26T17:27:13.538Z,30.93
2018-09-26T17:29:39.517Z,31.56
2018-09-26T17:32:05.544Z,31.74
2018-09-26T17:34:31.542Z,31.28
2018-09-26T17:36:57.524Z,32.11
2018-09-26T17:39:23.548Z,31.36
2018-09-26T17:41:49.545Z,31.10
2018-09-26T17:44:15.510Z,30.95
2018-09-26T17:46:41.512Z,31.06
2018-09-26T17:49:07.528Z,30.78
2018-09-26T17:51:33.719Z,31.52
2018-09-26T17:53:59.683Z,30.51
2018-09-26T17:56:25.656Z,30.95
2018-09-26T17:58:51.636Z,31.15
2018-09-26T18:01:17.602Z,31.41
2018-09-26T18:03:43.551Z,30.68
2018-09-26T18:06:09.488Z,30.33
2018-09-26T18:08:35.491Z,31.12
2018-09-26T18:11:01.565Z,32.00
2018-09-26T18:13:27.608Z,32.62
2018-09-26T18:15:53.502Z,32.54
2018-09-26T18:18:19.441Z,32.63
2018-09-26T18:20:45.441Z,32.05
2018-09-26T18:23:11.508Z,32.60
2018-09-26T18:25:37.421Z,32.75
2018-09-26T18:28:03.438Z,32.74
2018-09-26T18:30:29.390Z,33.70
2018-09-26T18:32:55.351Z,33.36
2018-09-26T18:35:21.303Z,33.35
2018-09-26T18:37:47.289Z,34.24
2018-09-26T18:40:13.451Z,33.51
2018-09-26T18:42:39.436Z,33.82
2018-09-26T18:45:05.459Z,32.72
2018-09-26T18:47:31.416Z,33.04
2018-09-26T18:49:57.428Z,33.77
2018-09-26T18:52:23.486Z,34.18
2018-09-26T18:54:49.460Z,34.17
2018-09-26T18:57:15.480Z,34.71
2018-09-26T18:59:41.471Z,33.39
2018-09-26T19:02:07.554Z,33.82
2018-09-26T19:04:33.624Z,33.54
2018-09-26T19:06:59.586Z,33.45
2018-09-26T19:09:25.637Z,33.13
2018-09-26T19:11:51.649Z,32.93
2018-09-26T19:14:17.687Z,32.82
2018-09-26T19:16:44.719Z,32.97
2018-09-26T19:19:10.752Z,33.06
2018-09-26T19:21:36.828Z,32.02
2018-09-26T19:24:02.769Z,32.21
2018-09-26T19:26:28.750Z,32.79
2018-09-26T19:28:54.907Z,33.02
2018-09-26T19:31:20.896Z,32.97
2018-09-26T19:33:46.969Z,32.37
2018-09-26T19:36:14.113Z,32.05
2018-09-26T19:38:40.188Z,31.86
2018-09-26T19:41:06.223Z,31.93
2018-09-26T19:43:32.235Z,32.56
2018-09-26T19:45:59.245Z,32.73
2018-09-26T19:48:25.237Z,34.07
2018-09-26T19:50:51.239Z,33.37
2018-09-26T19:53:17.358Z,33.25
2018-09-26T19:55:44.374Z,32.97
2018-09-26T19:58:10.484Z,33.69
2018-09-26T20:00:36.663Z,33.24
2018-09-26T20:03:02.657Z,33.10
2018-09-26T20:05:28.617Z,32.71
2018-09-26T20:07:54.588Z,32.27
2018-09-26T20:10:20.710Z,32.17
2018-09-26T20:12:46.764Z,31.81
2018-09-26T20:15:12.770Z,31.95
2018-09-26T20:17:38.711Z,31.59
2018-09-26T20:20:04.663Z,32.31
2018-09-26T20:22:30.603Z,32.52
2018-09-26T20:24:56.657Z,33.42
2018-09-26T20:27:22.653Z,32.65
2018-09-26T20:29:48.834Z,32.95
2018-09-26T20:32:14.725Z,32.93
2018-09-26T20:34:40.709Z,33.92
2018-09-26T20:37:06.725Z,33.77
2018-09-26T20:39:32.670Z,34.43
2018-09-26T20:41:58.652Z,34.18
2018-09-26T20:44:24.620Z,34.90
2018-09-26T20:46:50.609Z,34.57
2018-09-26T20:49:16.591Z,34.53
2018-09-26T20:51:42.615Z,34.32
2018-09-26T20:54:08.556Z,34.95
2018-09-26T20:56:34.528Z,34.84
2018-09-26T20:59:00.486Z,34.75
2018-09-26T21:01:26.485Z,35.79
2018-09-26T21:03:52.430Z,35.56
2018-09-26T21:06:18.498Z,35.37
2018-09-26T21:08:44.425Z,35.39
2018-09-26T21:11:10.516Z,35.45
2018-09-26T21:13:36.480Z,36.55
2018-09-26T21:16:02.450Z,36.49
2018-09-26T21:18:28.454Z,35.42
2018-09-26T21:20:54.406Z,35.45
2018-09-26T21:23:20.402Z,35.49
2018-09-26T21:25:46.381Z,35.24
2018-09-26T21:28:12.334Z,35.30
2018-09-26T21:30:38.319Z,35.72
2018-09-26T21:33:04.270Z,34.89
2018-09-26T21:35:30.240Z,34.79
2018-09-26T21:37:56.204Z,34.81
2018-09-26T21:40:22.155Z,33.02
2018-09-26T21:42:48.184Z,34.18
2018-09-26T21:45:14.166Z,34.53
2018-09-26T21:47:40.120Z,33.60
2018-09-26T21:50:06.136Z,33.73
2018-09-26T21:52:32.086Z,33.75
2018-09-26T21:54:58.058Z,34.49
2018-09-26T21:57:24.085Z,34.40
2018-09-26T21:59:50.052Z,35.18
2018-09-26T22:02:16.035Z,34.32
2018-09-26T22:04:41.967Z,35.12
2018-09-26T22:07:07.932Z,33.62
2018-09-26T22:09:33.879Z,33.37
2018-09-26T22:11:59.824Z,33.01
2018-09-26T22:14:25.767Z,31.68
2018-09-26T22:16:51.753Z,31.54
2018-09-26T22:19:17.716Z,30.44
2018-09-26T22:21:43.668Z,30.94
2018-09-26T22:24:09.635Z,30.80
2018-09-26T22:26:35.580Z,30.33
2018-09-26T22:29:01.565Z,30.01
2018-09-26T22:31:27.529Z,30.07
2018-09-26T22:33:53.461Z,29.99
2018-09-26T22:36:19.385Z,28.74
2018-09-26T22:38:45.334Z,28.46
2018-09-26T22:41:11.305Z,28.62
2018-09-26T22:43:37.240Z,27.64
2018-09-26T22:46:03.180Z,27.60
2018-09-26T22:48:29.141Z,26.65
2018-09-26T22:50:55.099Z,27.75
2018-09-26T22:53:21.040Z,27.45
2018-09-26T22:55:47.010Z,27.33
2018-09-26T22:58:12.999Z,24.63
2018-09-26T23:00:38.934Z,27.35
2018-09-26T23:03:04.889Z,26.55
2018-09-26T23:05:30.841Z,25.59
2018-09-26T23:07:56.797Z,27.27
2018-09-26T23:10:22.758Z,26.51
2018-09-26T23:12:48.710Z,25.41
2018-09-26T23:15:14.669Z,26.59
2018-09-26T23:17:40.611Z,25.34
2018-09-26T23:20:06.574Z,25.69
2018-09-26T23:22:32.529Z,25.89
2018-09-26T23:24:58.490Z,25.40
2018-09-26T23:27:24.447Z,26.58
2018-09-26T23:29:50.399Z,26.66
2018-09-26T23:32:16.360Z,25.89
2018-09-26T23:34:42.298Z,26.27
2018-09-26T23:37:08.234Z,26.41
2018-09-26T23:39:34.176Z,26.31
2018-09-26T23:42:00.138Z,24.64
2018-09-26T23:44:26.077Z,25.27
2018-09-26T23:46:52.046Z,25.79
2018-09-26T23:49:17.996Z,25.46
2018-09-26T23:51:43.943Z,25.22
2018-09-26T23:54:09.876Z,24.79
2018-09-26T23:56:35.833Z,24.76
2018-09-26T23:59:01.801Z,25.67
